createdAt,value
2018-02-19T00:01:21.442Z,19.52
2018-02-19T00:03:49.071Z,20.62
2018-02-19T00:06:16.691Z,19.98
2018-02-19T00:08:45.759Z,20.65
2018-02-19T00:11:14.164Z,19.17
2018-02-19T00:13:41.761Z,20.30
2018-02-19T00:16:09.361Z,20.02
2018-02-19T00:18:36.994Z,21.00
2018-02-19T00:21:04.593Z,21.87
2018-02-19T00:23:32.229Z,19.42
2018-02-19T00:26:00.628Z,19.02
2018-02-19T00:28:28.993Z,19.48
2018-02-19T00:30:57.395Z,16.45
2018-02-19T00:33:24.995Z,17.70
2018-02-19T00:35:52.597Z,18.45
2018-02-19T00:38:20.221Z,19.40
2018-02-19T00:40:47.856Z,18.92
2018-02-19T00:43:15.457Z,21.00
2018-02-19T00:45:43.052Z,17.52
2018-02-19T00:48:10.681Z,17.70
2018-02-19T00:50:39.068Z,19.55
2018-02-19T00:53:06.704Z,19.35
2018-02-19T00:55:34.304Z,21.25
2018-02-19T00:58:01.896Z,22.30
2018-02-19T01:00:29.520Z,22.15
2018-02-19T01:02:57.149Z,21.83
2018-02-19T01:05:24.752Z,22.23
2018-02-19T01:07:52.380Z,23.25
2018-02-19T01:10:20.739Z,26.05
2018-02-19T01:12:49.101Z,24.67
2018-02-19T01:15:17.496Z,23.35
2018-02-19T01:17:45.097Z,24.23
2018-02-19T01:20:12.733Z,24.52
2018-02-19T01:22:40.331Z,23.17
2018-02-19T01:25:07.923Z,22.35
2018-02-19T01:27:35.548Z,23.02
2018-02-19T01:30:03.151Z,22.67
2018-02-19T01:32:30.775Z,22.08
2018-02-19T01:34:58.420Z,20.88
2018-02-19T01:37:26.060Z,23.67
2018-02-19T01:39:53.656Z,25.48
2018-02-19T01:42:21.252Z,26.17
2018-02-19T01:44:48.893Z,23.05
2018-02-19T01:47:16.492Z,26.55
2018-02-19T01:52:48.588Z,23.62
2018-02-19T01:55:16.226Z,21.40
2018-02-19T01:57:43.816Z,24.55
2018-02-19T02:00:12.176Z,25.27
2018-02-19T02:02:40.564Z,26.92
2018-02-19T02:05:08.159Z,25.95
2018-02-19T02:07:36.045Z,25.27
2018-02-19T02:10:04.502Z,24.23
2018-02-19T02:12:32.864Z,28.50
2018-02-19T02:15:01.224Z,27.98
2018-02-19T02:17:29.620Z,23.65
2018-02-19T02:19:57.219Z,23.17
2018-02-19T02:22:24.877Z,21.83
2018-02-19T02:24:52.472Z,21.65
2018-02-19T02:27:20.081Z,23.30
2018-02-19T02:29:48.467Z,26.90
2018-02-19T02:32:16.064Z,24.17
2018-02-19T02:34:43.695Z,26.77
2018-02-19T02:37:11.324Z,26.62
2018-02-19T02:39:38.921Z,24.92
2018-02-19T02:42:07.308Z,30.33
2018-02-19T02:44:34.909Z,27.05
2018-02-19T02:47:02.504Z,27.00
2018-02-19T02:49:30.133Z,27.73
2018-02-19T02:51:58.497Z,27.20
2018-02-19T02:54:26.887Z,25.30
2018-02-19T02:56:54.484Z,26.73
2018-02-19T02:59:22.108Z,26.58
2018-02-19T03:01:49.750Z,27.17
2018-02-19T03:04:17.351Z,25.35
2018-02-19T03:06:45.708Z,28.77
2018-02-19T03:09:14.096Z,23.67
2018-02-19T03:11:41.720Z,26.10
2018-02-19T03:14:10.081Z,27.83
2018-02-19T03:16:38.486Z,25.55
2018-02-19T03:19:06.088Z,27.42
2018-02-19T03:21:34.447Z,27.58
2018-02-19T03:24:02.075Z,26.73
2018-02-19T03:26:29.695Z,26.42
2018-02-19T03:28:57.299Z,26.67
2018-02-19T03:31:25.656Z,25.52
2018-02-19T03:33:54.044Z,23.85
2018-02-19T03:36:21.639Z,24.33
2018-02-19T03:38:49.274Z,24.33
2018-02-19T03:41:16.871Z,26.42
2018-02-19T03:43:45.236Z,23.38
2018-02-19T03:46:13.628Z,28.48
2018-02-19T03:48:41.233Z,25.88
2018-02-19T03:51:08.868Z,21.48
2018-02-19T03:53:36.493Z,21.50
2018-02-19T03:56:04.120Z,20.42
2018-02-19T03:58:31.723Z,19.35
2018-02-19T04:01:00.120Z,20.20
2018-02-19T04:03:27.716Z,21.12
2018-02-19T04:05:55.308Z,19.33
2018-02-19T04:08:22.933Z,20.75
2018-02-19T04:10:51.301Z,18.83
2018-02-19T04:13:19.664Z,21.37
2018-02-19T04:15:48.055Z,22.33
2018-02-19T04:18:15.684Z,23.15
2018-02-19T04:20:43.389Z,21.02
2018-02-19T04:23:11.017Z,21.42
2018-02-19T04:25:38.644Z,20.20
2018-02-19T04:28:06.239Z,18.65
2018-02-19T04:30:33.876Z,20.27
2018-02-19T04:33:01.472Z,20.90
2018-02-19T04:35:29.104Z,22.87
2018-02-19T04:37:56.704Z,21.77
2018-02-19T04:40:24.296Z,21.27
2018-02-19T04:42:55.412Z,20.15
2018-02-19T04:45:24.399Z,21.58
2018-02-19T04:47:53.009Z,19.85
2018-02-19T04:50:20.608Z,20.85
2018-02-19T04:52:49.012Z,22.77
2018-02-19T04:55:16.607Z,20.80
2018-02-19T04:57:44.204Z,24.40
2018-02-19T05:00:11.829Z,22.42
2018-02-19T05:02:39.424Z,24.23
2018-02-19T05:05:07.049Z,20.83
2018-02-19T05:07:34.676Z,25.83
2018-02-19T05:10:02.277Z,21.75
2018-02-19T05:12:29.906Z,22.77
2018-02-19T05:14:57.529Z,23.75
2018-02-19T05:17:25.164Z,19.77
2018-02-19T05:19:52.812Z,20.92
2018-02-19T05:22:20.436Z,21.58
2018-02-19T05:24:48.824Z,22.17
2018-02-19T05:27:16.444Z,20.83
2018-02-19T05:29:44.816Z,21.52
2018-02-19T05:32:12.444Z,22.50
2018-02-19T05:34:40.061Z,19.83
2018-02-19T05:37:07.680Z,22.27
2018-02-19T05:39:35.324Z,21.12
2018-02-19T05:42:02.956Z,22.60
2018-02-19T05:44:30.560Z,21.37
2018-02-19T05:46:58.160Z,24.05
2018-02-19T05:49:25.784Z,20.65
2018-02-19T05:51:54.188Z,23.83
2018-02-19T05:54:21.780Z,21.95
2018-02-19T05:56:50.144Z,27.05
2018-02-19T05:59:17.794Z,26.62
2018-02-19T06:01:46.180Z,22.25
2018-02-19T06:04:14.540Z,20.27
2018-02-19T06:06:42.164Z,21.60
2018-02-19T06:09:10.556Z,25.40
2018-02-19T06:11:38.152Z,23.08
2018-02-19T06:14:05.801Z,23.85
2018-02-19T06:16:33.404Z,22.70
2018-02-19T06:19:01.004Z,22.17
2018-02-19T06:21:28.644Z,20.55
2018-02-19T06:23:56.260Z,21.95
2018-02-19T06:26:23.861Z,21.87
2018-02-19T06:28:52.252Z,21.45
2018-02-19T06:31:19.871Z,21.30
2018-02-19T06:33:48.227Z,23.67
2018-02-19T06:36:15.848Z,25.70
2018-02-19T06:38:43.449Z,23.05
2018-02-19T06:41:11.080Z,23.80
2018-02-19T06:43:39.436Z,24.40
2018-02-19T06:46:07.808Z,22.90
2018-02-19T06:48:36.215Z,22.98
2018-02-19T06:51:03.807Z,22.55
2018-02-19T06:53:31.407Z,23.97
2018-02-19T06:55:59.082Z,22.50
2018-02-19T06:58:26.677Z,21.62
2018-02-19T07:00:54.329Z,19.40
2018-02-19T07:03:22.216Z,19.45
2018-02-19T07:05:49.856Z,17.55
2018-02-19T07:08:17.480Z,18.95
2018-02-19T07:10:45.115Z,20.48
2018-02-19T07:13:12.712Z,20.62
2018-02-19T07:15:40.307Z,22.17
2018-02-19T07:18:07.928Z,21.67
2018-02-19T07:20:36.287Z,20.62
2018-02-19T07:23:04.692Z,19.10
2018-02-19T07:25:32.285Z,17.87
2018-02-19T07:27:59.885Z,18.52
2018-02-19T07:30:27.504Z,21.58
2018-02-19T07:32:55.870Z,19.35
2018-02-19T07:35:24.257Z,20.52
2018-02-19T07:37:51.883Z,23.05
2018-02-19T07:40:20.248Z,18.92
2018-02-19T07:42:47.867Z,22.02
2018-02-19T07:45:15.489Z,20.12
2018-02-19T07:47:43.856Z,20.55
2018-02-19T07:50:12.541Z,21.05
2018-02-19T07:52:40.157Z,24.52
2018-02-19T07:55:07.803Z,19.98
2018-02-19T07:57:35.448Z,18.92
2018-02-19T08:00:03.128Z,18.90
2018-02-19T08:02:31.532Z,20.25
2018-02-19T08:04:59.132Z,19.42
2018-02-19T08:07:27.493Z,18.95
2018-02-19T08:09:55.935Z,17.52
2018-02-19T08:12:24.439Z,18.15
2018-02-19T08:14:52.098Z,19.65
2018-02-19T08:17:19.704Z,18.17
2018-02-19T08:19:47.484Z,18.23
2018-02-19T08:22:15.093Z,15.18
2018-02-19T08:24:42.738Z,17.67
2018-02-19T08:27:10.337Z,19.17
2018-02-19T08:29:37.936Z,20.02
2018-02-19T08:32:05.680Z,19.48
2018-02-19T08:34:33.288Z,18.33
2018-02-19T08:37:00.968Z,23.58
2018-02-19T08:39:28.576Z,20.85
2018-02-19T08:41:56.168Z,22.77
2018-02-19T08:44:23.792Z,21.08
2018-02-19T08:46:51.411Z,21.83
2018-02-19T08:49:19.024Z,23.60
2018-02-19T08:51:46.650Z,20.73
2018-02-19T08:54:14.251Z,17.80
2018-02-19T08:56:41.857Z,21.73
2018-02-19T08:59:09.484Z,20.35
2018-02-19T09:01:37.080Z,23.98
2018-02-19T09:04:04.676Z,21.80
2018-02-19T09:06:32.300Z,22.02
2018-02-19T09:08:59.933Z,23.65
2018-02-19T09:11:27.556Z,24.40
2018-02-19T09:13:55.189Z,21.12
2018-02-19T09:16:23.557Z,20.33
2018-02-19T09:18:51.949Z,26.50
2018-02-19T09:21:19.645Z,22.87
2018-02-19T09:23:47.243Z,22.92
2018-02-19T09:26:14.838Z,21.62
2018-02-19T09:28:42.460Z,21.10
2018-02-19T09:31:10.088Z,18.80
2018-02-19T09:33:37.707Z,18.15
2018-02-19T09:36:06.096Z,17.65
2018-02-19T09:38:33.694Z,17.20
2018-02-19T09:41:01.317Z,18.02
2018-02-19T09:43:28.971Z,18.65
2018-02-19T09:45:56.614Z,18.08
2018-02-19T09:48:24.215Z,18.85
2018-02-19T09:50:51.812Z,19.75
2018-02-19T09:53:19.444Z,17.60
2018-02-19T09:55:47.045Z,20.33
2018-02-19T09:58:15.452Z,21.67
2018-02-19T10:00:43.047Z,18.33
2018-02-19T10:03:11.417Z,17.75
2018-02-19T10:05:39.842Z,18.08
2018-02-19T10:08:07.444Z,19.58
2018-02-19T10:10:35.045Z,21.02
2018-02-19T10:13:02.685Z,21.05
2018-02-19T10:15:30.290Z,19.67
2018-02-19T10:17:57.980Z,23.42
2018-02-19T10:20:25.628Z,22.13
2018-02-19T10:22:53.236Z,22.48
2018-02-19T10:25:20.840Z,21.45
2018-02-19T10:27:49.258Z,19.17
2018-02-19T10:30:16.867Z,18.60
2018-02-19T10:32:45.235Z,23.85
2018-02-19T10:35:12.957Z,21.98
2018-02-19T10:37:40.556Z,21.05
2018-02-19T10:40:08.220Z,20.08
2018-02-19T10:42:35.825Z,21.05
2018-02-19T10:45:03.431Z,23.12
2018-02-19T10:47:31.057Z,22.15
2018-02-19T10:49:58.697Z,23.30
2018-02-19T10:52:26.300Z,20.45
2018-02-19T10:54:53.901Z,20.60
2018-02-19T10:57:22.346Z,18.52
2018-02-19T10:59:49.945Z,18.05
2018-02-19T11:02:17.550Z,21.52
2018-02-19T11:04:45.172Z,21.48
2018-02-19T11:07:12.764Z,17.75
2018-02-19T11:09:41.168Z,20.05
2018-02-19T11:12:08.769Z,22.30
2018-02-19T11:14:37.137Z,20.05
2018-02-19T11:17:04.764Z,17.40
2018-02-19T11:19:32.498Z,18.92
2018-02-19T11:22:00.131Z,19.65
2018-02-19T11:24:27.755Z,20.08
2018-02-19T11:26:55.363Z,17.10
2018-02-19T11:29:23.758Z,16.75
2018-02-19T11:31:51.357Z,17.92
2018-02-19T11:34:18.961Z,18.50
2018-02-19T11:36:46.601Z,19.40
2018-02-19T11:39:14.213Z,18.45
2018-02-19T11:41:41.886Z,18.15
2018-02-19T11:44:09.503Z,18.85
2018-02-19T11:46:37.142Z,21.35
2018-02-19T11:49:04.817Z,22.20
2018-02-19T11:51:32.430Z,18.92
2018-02-19T11:54:00.054Z,17.90
2018-02-19T11:56:27.726Z,17.48
2018-02-19T11:58:55.357Z,18.27
2018-02-19T12:01:23.068Z,18.20
2018-02-19T12:03:50.696Z,17.35
2018-02-19T12:06:19.093Z,19.92
2018-02-19T12:08:46.698Z,18.20
2018-02-19T12:11:15.117Z,20.00
2018-02-19T12:13:42.717Z,17.98
2018-02-19T12:16:11.079Z,18.90
2018-02-19T12:18:39.474Z,21.25
2018-02-19T12:21:07.095Z,22.37
2018-02-19T12:23:34.701Z,21.50
2018-02-19T12:26:02.334Z,20.77
2018-02-19T12:28:29.944Z,21.98
2018-02-19T12:30:57.573Z,20.48
2018-02-19T12:33:25.944Z,23.80
2018-02-19T12:35:54.369Z,23.50
2018-02-19T12:38:21.976Z,21.15
2018-02-19T12:40:49.581Z,21.45
2018-02-19T12:43:17.218Z,21.83
2018-02-19T12:45:44.818Z,22.10
2018-02-19T12:48:12.419Z,18.85
2018-02-19T12:50:40.052Z,23.27
2018-02-19T12:53:07.652Z,22.42
2018-02-19T12:55:35.254Z,22.25
2018-02-19T12:58:02.877Z,20.70
2018-02-19T13:00:30.517Z,20.55
2018-02-19T13:02:58.202Z,24.12
2018-02-19T13:05:26.567Z,25.62
2018-02-19T13:07:54.969Z,21.02
2018-02-19T13:10:22.565Z,23.95
2018-02-19T13:12:51.003Z,23.52
2018-02-19T13:15:18.632Z,21.02
2018-02-19T13:17:46.234Z,23.25
2018-02-19T13:20:13.829Z,26.58
2018-02-19T13:22:41.452Z,21.70
2018-02-19T13:25:09.089Z,22.85
2018-02-19T13:27:37.502Z,20.98
2018-02-19T13:30:05.127Z,26.15
2018-02-19T13:32:32.731Z,21.87
2018-02-19T13:35:01.134Z,23.85
2018-02-19T13:37:28.741Z,26.85
2018-02-19T13:39:56.374Z,23.83
2018-02-19T13:42:23.976Z,21.52
2018-02-19T13:44:51.601Z,21.55
2018-02-19T13:47:19.966Z,23.00
2018-02-19T13:49:48.344Z,26.85
2018-02-19T13:52:15.968Z,21.23
2018-02-19T13:54:44.328Z,23.00
2018-02-19T13:57:12.710Z,24.10
2018-02-19T13:59:40.332Z,21.25
2018-02-19T14:02:08.171Z,22.10
2018-02-19T14:04:35.834Z,21.52
2018-02-19T14:07:04.225Z,24.25
2018-02-19T14:09:31.826Z,25.77
2018-02-19T14:11:59.469Z,23.45
2018-02-19T14:14:27.110Z,27.65
2018-02-19T14:16:54.734Z,27.33
2018-02-19T14:19:22.380Z,23.38
2018-02-19T14:21:50.017Z,23.02
2018-02-19T14:24:17.839Z,24.77
2018-02-19T14:26:45.472Z,25.08
2018-02-19T14:29:13.093Z,25.55
2018-02-19T14:31:40.715Z,24.60
2018-02-19T14:34:08.360Z,23.62
2018-02-19T14:36:35.960Z,24.83
2018-02-19T14:39:04.333Z,26.70
2018-02-19T14:41:32.724Z,26.75
2018-02-19T14:44:00.416Z,25.80
2018-02-19T14:46:28.044Z,28.23
2018-02-19T14:48:55.657Z,26.67
2018-02-19T14:51:23.306Z,27.25
2018-02-19T14:53:50.920Z,25.25
2018-02-19T14:56:18.540Z,27.92
2018-02-19T14:58:46.152Z,27.08
2018-02-19T15:01:13.780Z,26.58
2018-02-19T15:03:42.171Z,25.77
2018-02-19T15:06:09.850Z,23.55
2018-02-19T15:08:37.485Z,28.80
2018-02-19T15:11:05.077Z,27.85
2018-02-19T15:13:33.441Z,26.50
2018-02-19T15:16:01.068Z,23.85
2018-02-19T15:18:28.673Z,24.17
2018-02-19T15:20:56.319Z,26.40
2018-02-19T15:23:23.931Z,23.52
2018-02-19T15:25:51.528Z,27.75
2018-02-19T15:28:19.310Z,22.58
2018-02-19T15:30:46.937Z,24.77
2018-02-19T15:33:14.586Z,22.90
2018-02-19T15:35:42.192Z,25.90
2018-02-19T15:38:09.840Z,27.73
2018-02-19T15:40:37.529Z,26.00
2018-02-19T15:43:05.137Z,26.95
2018-02-19T15:45:32.732Z,30.65
2018-02-19T15:48:00.360Z,28.52
2018-02-19T15:50:28.139Z,25.55
2018-02-19T15:52:56.499Z,27.87
2018-02-19T15:55:24.909Z,29.95
2018-02-19T15:57:52.511Z,27.02
2018-02-19T16:00:20.153Z,27.25
2018-02-19T16:02:47.933Z,26.67
2018-02-19T16:05:15.535Z,27.55
2018-02-19T16:07:43.145Z,26.55
2018-02-19T16:10:10.789Z,25.30
2018-02-19T16:12:38.400Z,24.12
2018-02-19T16:15:06.759Z,24.50
2018-02-19T16:17:34.385Z,26.17
2018-02-19T16:20:02.026Z,24.90
2018-02-19T16:22:29.650Z,22.83
2018-02-19T16:24:57.255Z,26.23
2018-02-19T16:27:24.904Z,25.55
2018-02-19T16:29:53.291Z,23.00
2018-02-19T16:32:20.985Z,25.25
2018-02-19T16:34:48.604Z,21.90
2018-02-19T16:37:16.205Z,22.83
2018-02-19T16:39:44.587Z,26.80
2018-02-19T16:42:12.189Z,27.70
2018-02-19T16:44:39.824Z,23.35
2018-02-19T16:47:07.421Z,21.90
2018-02-19T16:49:35.016Z,22.15
2018-02-19T16:52:02.641Z,22.37
2018-02-19T16:54:30.320Z,23.95
2018-02-19T16:56:57.944Z,23.87
2018-02-19T16:59:25.541Z,23.85
2018-02-19T17:01:53.936Z,23.73
2018-02-19T17:04:21.622Z,23.87
2018-02-19T17:06:49.262Z,23.75
2018-02-19T17:09:16.860Z,26.35
2018-02-19T17:11:44.561Z,26.55
2018-02-19T17:14:12.180Z,22.92
2018-02-19T17:16:39.804Z,24.63
2018-02-19T17:19:07.424Z,27.92
2018-02-19T17:21:35.045Z,28.05
2018-02-19T17:24:02.649Z,29.08
2018-02-19T17:26:30.244Z,26.33
2018-02-19T17:28:57.882Z,27.23
2018-02-19T17:31:25.482Z,27.42
2018-02-19T17:33:53.097Z,30.17
2018-02-19T17:36:20.715Z,27.15
2018-02-19T17:38:48.316Z,26.90
2018-02-19T17:41:15.960Z,25.67
2018-02-19T17:43:44.321Z,26.48
2018-02-19T17:46:12.712Z,27.90
2018-02-19T17:48:40.310Z,27.58
2018-02-19T17:51:08.075Z,30.62
2018-02-19T17:53:36.469Z,29.67
2018-02-19T17:56:04.084Z,28.90
2018-02-19T17:58:32.473Z,28.45
2018-02-19T18:01:00.082Z,29.23
2018-02-19T18:03:27.725Z,29.10
2018-02-19T18:05:55.317Z,28.47
2018-02-19T18:08:22.922Z,27.62
2018-02-19T18:10:50.568Z,28.90
2018-02-19T18:13:18.169Z,27.30
2018-02-19T18:15:45.764Z,27.17
2018-02-19T18:18:13.388Z,27.37
2018-02-19T18:20:40.996Z,28.55
2018-02-19T18:23:08.622Z,29.02
2018-02-19T18:25:36.992Z,29.40
2018-02-19T18:28:04.637Z,26.25
2018-02-19T18:30:32.252Z,29.52
2018-02-19T18:32:59.849Z,31.00
2018-02-19T18:35:27.486Z,34.42
2018-02-19T18:37:55.076Z,29.25
2018-02-19T18:40:22.882Z,28.17
2018-02-19T18:42:50.580Z,29.90
2018-02-19T18:45:18.204Z,32.53
2018-02-19T18:47:45.809Z,28.52
2018-02-19T18:50:13.437Z,26.48
2018-02-19T18:52:41.040Z,27.70
2018-02-19T18:55:08.694Z,26.62
2018-02-19T18:57:36.362Z,31.00
2018-02-19T19:00:04.793Z,28.00
2018-02-19T19:02:32.422Z,30.95
2018-02-19T19:05:00.021Z,30.00
2018-02-19T19:07:39.473Z,31.55
2018-02-19T19:10:19.884Z,29.02
2018-02-19T19:12:47.561Z,29.63
2018-02-19T19:15:15.926Z,32.70
2018-02-19T19:17:44.292Z,30.73
2018-02-19T19:20:12.876Z,30.45
2018-02-19T19:22:40.472Z,33.60
2018-02-19T19:25:08.064Z,32.63
2018-02-19T19:27:35.801Z,30.15
2018-02-19T19:30:04.173Z,29.90
2018-02-19T19:32:31.796Z,29.48
2018-02-19T19:34:59.396Z,31.23
2018-02-19T19:37:27.045Z,32.85
2018-02-19T19:39:54.733Z,32.05
2018-02-19T19:42:22.339Z,30.27
2018-02-19T19:44:49.965Z,27.95
2018-02-19T19:47:17.679Z,29.58
2018-02-19T19:49:45.377Z,32.22
2018-02-19T19:52:13.161Z,32.45
2018-02-19T19:54:41.548Z,27.77
2018-02-19T19:57:09.177Z,31.70
2018-02-19T19:59:36.922Z,32.80
2018-02-19T20:02:05.304Z,28.60
2018-02-19T20:04:32.933Z,27.33
2018-02-19T20:07:00.555Z,32.05
2018-02-19T20:09:28.252Z,27.87
2018-02-19T20:11:56.660Z,28.58
2018-02-19T20:14:24.267Z,29.80
2018-02-19T20:16:52.632Z,28.23
2018-02-19T20:19:21.139Z,30.60
2018-02-19T20:21:48.741Z,31.33
2018-02-19T20:24:17.101Z,28.85
2018-02-19T20:26:46.191Z,26.20
2018-02-19T20:29:13.833Z,31.33
2018-02-19T20:31:42.226Z,28.35
2018-02-19T20:34:10.223Z,29.30
2018-02-19T20:36:38.109Z,30.67
2018-02-19T20:39:06.488Z,31.20
2018-02-19T20:41:34.089Z,28.70
2018-02-19T20:44:01.839Z,26.80
2018-02-19T20:46:29.491Z,29.60
2018-02-19T20:48:57.130Z,29.35
2018-02-19T20:51:24.742Z,27.10
2018-02-19T20:53:52.344Z,31.15
2018-02-19T20:56:20.005Z,28.12
2018-02-19T20:58:48.373Z,29.08
2018-02-19T21:01:16.739Z,29.58
2018-02-19T21:03:45.131Z,28.10
2018-02-19T21:06:12.753Z,28.65
2018-02-19T21:08:40.356Z,30.35
2018-02-19T21:11:08.011Z,27.25
2018-02-19T21:13:35.618Z,30.15
2018-02-19T21:16:03.218Z,30.05
2018-02-19T21:18:30.849Z,30.88
2018-02-19T21:20:58.445Z,31.33
2018-02-19T21:23:26.068Z,27.92
2018-02-19T21:25:54.434Z,28.55
2018-02-19T21:28:22.836Z,29.15
2018-02-19T21:30:50.440Z,28.80
2018-02-19T21:33:18.080Z,29.07
2018-02-19T21:35:46.085Z,33.67
2018-02-19T21:38:14.448Z,31.08
2018-02-19T21:40:42.851Z,29.10
2018-02-19T21:43:10.512Z,29.08
2018-02-19T21:45:38.109Z,33.47
2018-02-19T21:48:06.475Z,33.50
2018-02-19T21:50:34.188Z,33.33
2018-02-19T21:53:01.792Z,32.28
2018-02-19T21:55:29.574Z,27.27
2018-02-19T21:57:57.205Z,27.85
2018-02-19T22:00:24.804Z,35.90
2018-02-19T22:02:54.375Z,30.62
2018-02-19T22:05:22.007Z,33.38
2018-02-19T22:07:49.610Z,30.35
2018-02-19T22:10:17.714Z,29.83
2018-02-19T22:12:45.318Z,34.78
2018-02-19T22:15:12.926Z,35.17
2018-02-19T22:17:40.556Z,33.88
2018-02-19T22:20:08.435Z,36.83
2018-02-19T22:22:36.842Z,33.53
2018-02-19T22:25:04.442Z,38.22
2018-02-19T22:27:32.800Z,32.78
2018-02-19T22:30:00.420Z,33.05
2018-02-19T22:32:28.024Z,34.47
2018-02-19T22:34:55.648Z,34.47
2018-02-19T22:37:24.048Z,34.15
2018-02-19T22:39:51.641Z,35.60
2018-02-19T22:42:19.243Z,37.60
2018-02-19T22:44:46.865Z,36.17
2018-02-19T22:47:15.232Z,37.20
2018-02-19T22:49:42.857Z,37.22
2018-02-19T22:52:11.220Z,39.65
2018-02-19T22:54:38.849Z,34.15
2018-02-19T22:57:06.444Z,36.00
2018-02-19T22:59:34.040Z,37.65
2018-02-19T23:02:01.685Z,33.22
2018-02-19T23:04:29.300Z,36.95
2018-02-19T23:06:56.899Z,37.47
2018-02-19T23:09:24.524Z,39.15
2018-02-19T23:11:52.120Z,34.17
2018-02-19T23:14:19.744Z,38.08
2018-02-19T23:16:48.103Z,36.50
2018-02-19T23:19:16.488Z,36.17
2018-02-19T23:21:44.152Z,34.67
2018-02-19T23:24:11.745Z,34.53
2018-02-19T23:26:39.347Z,37.50
2018-02-19T23:29:06.988Z,37.25
2018-02-19T23:31:34.580Z,34.22
2018-02-19T23:34:02.186Z,35.70
2018-02-19T23:36:29.811Z,40.12
2018-02-19T23:38:57.467Z,33.05
2018-02-19T23:41:25.056Z,39.03
2018-02-19T23:43:52.643Z,34.67
2018-02-19T23:46:21.041Z,36.45
2018-02-19T23:48:48.635Z,37.88
2018-02-19T23:51:16.232Z,36.00
2018-02-19T23:53:43.856Z,33.08
2018-02-19T23:56:11.488Z,36.00
2018-02-19T23:58:39.848Z,33.15
